createdAt,value
2023-02-09T00:00:02.774Z,53.08
2023-02-09T00:02:40.568Z,57.40
2023-02-09T00:05:08.782Z,51.92
2023-02-09T00:07:35.854Z,48.63
2023-02-09T00:10:03.268Z,46.90
2023-02-09T00:12:49.336Z,50.55
2023-02-09T00:15:16.164Z,49.67
2023-02-09T00:17:43.367Z,53.05
2023-02-09T00:20:10.784Z,52.50
2023-02-09T00:22:37.867Z,48.60
2023-02-09T00:25:05.024Z,48.85
2023-02-09T00:27:35.564Z,57.50
2023-02-09T00:30:04.773Z,57.42
2023-02-09T00:32:33.152Z,53.70
2023-02-09T00:35:00.066Z,57.17
2023-02-09T00:37:28.433Z,51.85
2023-02-09T00:39:55.363Z,55.65
2023-02-09T00:42:22.347Z,60.00
2023-02-09T00:44:50.012Z,56.95
2023-02-09T00:47:17.177Z,53.08
2023-02-09T00:49:44.196Z,55.03
2023-02-09T00:52:11.263Z,55.53
2023-02-09T00:54:38.487Z,54.72
2023-02-09T00:57:05.608Z,56.22
2023-02-09T00:59:35.124Z,53.10
2023-02-09T01:02:03.132Z,55.20
2023-02-09T01:04:30.069Z,51.53
2023-02-09T01:06:57.101Z,55.42
2023-02-09T01:09:24.212Z,54.50
2023-02-09T01:11:51.298Z,55.42
2023-02-09T01:14:18.654Z,56.58
2023-02-09T01:16:46.033Z,52.95
2023-02-09T01:19:14.297Z,51.78
2023-02-09T01:21:41.548Z,54.85
2023-02-09T01:24:13.091Z,55.53
2023-02-09T01:26:40.096Z,51.83
2023-02-09T01:29:06.971Z,51.60
2023-02-09T01:31:35.956Z,48.47
2023-02-09T01:34:04.259Z,50.92
2023-02-09T01:36:32.720Z,54.55
2023-02-09T01:39:01.844Z,60.92
2023-02-09T01:41:29.987Z,59.53
2023-02-09T01:44:11.715Z,54.47
2023-02-09T01:46:39.245Z,58.58
2023-02-09T01:49:19.716Z,56.92
2023-02-09T01:51:53.733Z,54.47
2023-02-09T01:54:24.457Z,55.65
2023-02-09T01:56:57.607Z,58.90
2023-02-09T01:59:24.963Z,53.20
2023-02-09T02:01:52.969Z,55.55
2023-02-09T02:04:21.036Z,59.47
2023-02-09T02:06:48.263Z,57.33
2023-02-09T02:09:17.791Z,57.22
2023-02-09T02:11:47.760Z,57.70
2023-02-09T02:14:39.076Z,54.33
2023-02-09T02:17:24.549Z,60.28
2023-02-09T02:19:57.050Z,55.03
2023-02-09T02:22:36.654Z,57.67
2023-02-09T02:25:34.678Z,58.85
2023-02-09T02:28:31.867Z,58.75
2023-02-09T02:31:26.978Z,62.80
2023-02-09T02:34:02.892Z,65.78
2023-02-09T02:36:43.356Z,58.92
2023-02-09T02:39:25.994Z,61.38
2023-02-09T02:42:36.851Z,65.10
2023-02-09T02:45:29.223Z,61.75
2023-02-09T02:48:07.185Z,62.15
2023-02-09T02:50:39.477Z,54.05
2023-02-09T02:53:09.035Z,60.88
2023-02-09T02:55:39.119Z,62.97
2023-02-09T02:58:09.899Z,55.47
2023-02-09T03:00:41.762Z,57.05
2023-02-09T03:03:17.889Z,63.58
2023-02-09T03:05:45.076Z,59.28
2023-02-09T03:08:12.193Z,58.35
2023-02-09T03:10:41.428Z,54.40
2023-02-09T03:13:32.076Z,57.22
2023-02-09T03:16:18.381Z,59.38
2023-02-09T03:19:12.742Z,57.67
2023-02-09T03:21:56.933Z,59.30
2023-02-09T03:24:30.611Z,58.90
2023-02-09T03:27:18.456Z,59.28
2023-02-09T03:29:55.523Z,55.60
2023-02-09T03:32:22.826Z,57.65
2023-02-09T03:34:49.963Z,61.00
2023-02-09T03:37:18.116Z,60.10
2023-02-09T03:39:45.022Z,62.28
2023-02-09T03:42:11.908Z,57.70
2023-02-09T03:44:38.988Z,61.13
2023-02-09T03:47:08.202Z,60.85
2023-02-09T03:49:40.047Z,59.33
2023-02-09T03:52:13.660Z,55.22
2023-02-09T03:54:40.979Z,60.10
2023-02-09T03:57:08.997Z,58.80
2023-02-09T03:59:37.799Z,64.80
2023-02-09T04:02:07.369Z,53.63
2023-02-09T04:04:34.414Z,52.85
2023-02-09T04:07:01.608Z,58.85
2023-02-09T04:09:28.722Z,61.38
2023-02-09T04:11:56.295Z,60.28
2023-02-09T04:14:23.402Z,58.42
2023-02-09T04:16:50.333Z,63.10
2023-02-09T04:19:17.310Z,61.42
2023-02-09T04:21:44.240Z,65.88
2023-02-09T04:24:11.396Z,67.88
2023-02-09T04:26:38.398Z,62.35
2023-02-09T04:29:05.564Z,64.85
2023-02-09T04:31:32.492Z,60.55
2023-02-09T04:33:59.485Z,65.22
2023-02-09T04:36:27.225Z,64.47
2023-02-09T04:38:54.126Z,60.47
2023-02-09T04:41:21.000Z,62.25
2023-02-09T04:43:48.260Z,61.95
2023-02-09T04:46:16.786Z,61.13
2023-02-09T04:48:44.298Z,62.15
2023-02-09T04:51:11.537Z,60.83
2023-02-09T04:53:38.650Z,60.53
2023-02-09T04:56:06.213Z,66.75
2023-02-09T04:58:52.138Z,59.33
2023-02-09T05:01:22.999Z,60.58
2023-02-09T05:03:49.953Z,56.85
2023-02-09T05:06:17.261Z,55.58
2023-02-09T05:08:44.695Z,55.15
2023-02-09T05:11:12.229Z,54.33
2023-02-09T05:13:39.304Z,53.70
2023-02-09T05:16:12.141Z,59.75
2023-02-09T05:18:39.392Z,60.08
2023-02-09T05:21:06.490Z,59.08
2023-02-09T05:23:33.413Z,62.58
2023-02-09T05:26:01.221Z,61.30
2023-02-09T05:28:28.262Z,64.60
2023-02-09T05:30:55.747Z,62.17
2023-02-09T05:33:24.999Z,63.50
2023-02-09T05:35:53.492Z,61.13
2023-02-09T05:38:20.439Z,73.35
2023-02-09T05:40:47.829Z,72.88
2023-02-09T05:43:15.040Z,66.90
2023-02-09T05:45:41.946Z,69.93
2023-02-09T05:48:08.812Z,75.50
2023-02-09T05:50:36.080Z,73.47
2023-02-09T05:53:07.774Z,74.68
2023-02-09T05:55:34.687Z,78.57
2023-02-09T05:58:01.587Z,80.82
2023-02-09T06:00:29.997Z,86.32
2023-02-09T06:02:58.620Z,80.75
2023-02-09T06:05:26.222Z,76.97
2023-02-09T06:07:53.189Z,78.25
2023-02-09T06:10:20.444Z,69.43
2023-02-09T06:12:47.476Z,73.93
2023-02-09T06:15:16.318Z,74.80
2023-02-09T06:17:43.612Z,73.65
2023-02-09T06:20:11.341Z,71.65
2023-02-09T06:22:38.412Z,74.72
2023-02-09T06:25:05.573Z,68.30
2023-02-09T06:27:33.624Z,65.70
2023-02-09T06:30:00.518Z,67.93
2023-02-09T06:32:27.897Z,73.68
2023-02-09T06:34:54.978Z,72.18
2023-02-09T06:37:21.973Z,71.13
2023-02-09T06:39:48.842Z,65.72
2023-02-09T06:42:15.679Z,73.90
2023-02-09T06:44:42.679Z,76.68
2023-02-09T06:47:09.594Z,72.22
2023-02-09T06:49:36.550Z,71.75
2023-02-09T06:52:03.842Z,70.10
2023-02-09T06:54:30.982Z,59.25
2023-02-09T06:56:57.877Z,60.40
2023-02-09T06:59:26.038Z,56.17
2023-02-09T07:01:54.954Z,56.13
2023-02-09T07:04:22.556Z,70.22
2023-02-09T07:06:49.672Z,65.85
2023-02-09T07:09:16.702Z,71.40
2023-02-09T07:11:44.212Z,76.05
2023-02-09T07:14:11.384Z,71.07
2023-02-09T07:16:38.759Z,71.43
2023-02-09T07:19:05.607Z,65.38
2023-02-09T07:21:32.408Z,62.92
2023-02-09T07:23:59.351Z,59.92
2023-02-09T07:26:26.294Z,60.30
2023-02-09T07:28:53.223Z,57.65
2023-02-09T07:31:20.282Z,58.80
2023-02-09T07:33:47.577Z,58.45
2023-02-09T07:36:16.435Z,61.88
2023-02-09T07:38:43.894Z,55.20
2023-02-09T07:41:19.686Z,58.88
2023-02-09T07:43:47.897Z,52.95
2023-02-09T07:46:21.101Z,56.30
2023-02-09T07:48:49.084Z,56.75
2023-02-09T07:54:15.348Z,49.42
2023-02-09T07:56:42.479Z,54.25
2023-02-09T07:59:11.168Z,49.20
2023-02-09T08:01:38.125Z,45.63
2023-02-09T08:04:05.204Z,49.45
2023-02-09T08:06:45.318Z,46.72
2023-02-09T08:09:15.428Z,47.13
2023-02-09T08:12:01.856Z,47.35
2023-02-09T08:14:34.735Z,45.58
2023-02-09T08:17:21.564Z,44.25
2023-02-09T08:19:59.588Z,46.75
2023-02-09T08:22:32.373Z,44.80
2023-02-09T08:25:01.246Z,46.22
2023-02-09T08:27:29.068Z,45.00
2023-02-09T08:29:57.326Z,47.10
2023-02-09T08:32:24.279Z,46.45
2023-02-09T08:34:51.164Z,43.50
2023-02-09T08:37:18.075Z,45.95
2023-02-09T08:39:45.305Z,43.35
2023-02-09T08:42:12.129Z,47.22
2023-02-09T08:44:38.941Z,46.22
2023-02-09T08:47:06.116Z,43.47
2023-02-09T08:49:33.058Z,40.92
2023-02-09T08:52:01.931Z,50.42
2023-02-09T08:54:28.896Z,43.78
2023-02-09T08:56:55.840Z,40.53
2023-02-09T08:59:23.527Z,44.78
2023-02-09T09:01:50.440Z,46.60
2023-02-09T09:04:17.454Z,47.38
2023-02-09T09:06:44.390Z,47.03
2023-02-09T09:09:14.593Z,47.35
2023-02-09T09:11:41.847Z,44.85
2023-02-09T09:14:08.706Z,45.47
2023-02-09T09:16:35.703Z,45.70
2023-02-09T09:19:04.669Z,46.22
2023-02-09T09:21:31.608Z,50.78
2023-02-09T09:23:58.592Z,48.60
2023-02-09T09:26:25.589Z,37.97
2023-02-09T09:28:52.562Z,45.15
2023-02-09T09:31:20.223Z,45.05
2023-02-09T09:33:47.870Z,42.15
2023-02-09T09:36:14.830Z,49.63
2023-02-09T09:38:42.530Z,43.40
2023-02-09T09:41:29.784Z,42.85
2023-02-09T09:43:57.308Z,43.40
2023-02-09T09:46:35.442Z,42.90
2023-02-09T09:49:03.470Z,43.72
2023-02-09T09:51:44.543Z,49.78
2023-02-09T09:54:23.253Z,39.08
2023-02-09T09:56:50.865Z,40.22
2023-02-09T09:59:21.608Z,38.08
2023-02-09T10:01:51.184Z,44.17
2023-02-09T10:04:19.673Z,42.10
2023-02-09T10:06:51.730Z,41.17
2023-02-09T10:09:39.112Z,41.28
2023-02-09T10:12:19.071Z,40.47
2023-02-09T10:14:46.099Z,40.15
2023-02-09T10:17:12.968Z,38.80
2023-02-09T10:19:40.104Z,39.95
2023-02-09T10:22:13.159Z,38.85
2023-02-09T10:24:40.740Z,37.20
2023-02-09T10:27:21.347Z,42.30
2023-02-09T10:29:48.403Z,44.22
2023-02-09T10:32:39.795Z,36.35
2023-02-09T10:35:27.508Z,37.53
2023-02-09T10:38:01.132Z,35.53
2023-02-09T10:40:32.690Z,35.97
2023-02-09T10:43:02.626Z,38.03
2023-02-09T10:45:41.906Z,36.85
2023-02-09T10:48:21.029Z,36.85
2023-02-09T10:50:57.543Z,37.75
2023-02-09T10:53:37.570Z,38.83
2023-02-09T10:56:19.472Z,36.33
2023-02-09T10:59:02.127Z,34.25
2023-02-09T11:01:33.064Z,37.50
2023-02-09T11:04:04.227Z,36.15
2023-02-09T11:06:43.907Z,32.35
2023-02-09T11:09:18.659Z,32.85
2023-02-09T11:11:46.303Z,36.88
2023-02-09T11:14:18.822Z,35.03
2023-02-09T11:17:10.916Z,33.10
2023-02-09T11:20:19.408Z,37.45
2023-02-09T11:22:51.430Z,36.35
2023-02-09T11:25:28.796Z,34.65
2023-02-09T11:28:13.910Z,36.83
2023-02-09T11:31:02.406Z,34.45
2023-02-09T11:33:33.939Z,34.17
2023-02-09T11:36:29.161Z,35.13
2023-02-09T11:39:09.563Z,32.38
2023-02-09T11:41:57.418Z,31.88
2023-02-09T11:44:34.479Z,31.98
2023-02-09T11:47:18.569Z,30.73
2023-02-09T11:49:52.042Z,30.42
2023-02-09T11:52:24.951Z,28.35
2023-02-09T11:54:54.842Z,27.05
2023-02-09T11:57:36.063Z,23.63
2023-02-09T12:00:07.288Z,23.80
2023-02-09T12:02:46.406Z,24.27
2023-02-09T12:05:17.820Z,21.70
2023-02-09T12:08:05.821Z,24.15
2023-02-09T12:10:57.002Z,26.10
2023-02-09T12:13:50.379Z,23.45
2023-02-09T12:16:23.252Z,25.20
2023-02-09T12:18:53.585Z,23.48
2023-02-09T12:21:30.026Z,19.55
2023-02-09T12:23:56.965Z,20.98
2023-02-09T12:26:35.927Z,19.52
2023-02-09T12:29:24.754Z,23.90
2023-02-09T12:32:03.747Z,23.98
2023-02-09T12:34:42.055Z,24.00
2023-02-09T12:37:14.884Z,22.52
2023-02-09T12:40:07.023Z,24.50
2023-02-09T12:42:42.830Z,23.67
2023-02-09T12:45:31.605Z,23.25
2023-02-09T12:48:19.294Z,23.92
2023-02-09T12:50:54.646Z,22.55
2023-02-09T12:53:24.540Z,23.27
2023-02-09T12:56:17.539Z,23.95
2023-02-09T12:58:44.363Z,25.33
2023-02-09T13:01:13.144Z,23.60
2023-02-09T13:03:51.237Z,24.45
2023-02-09T13:06:40.745Z,22.67
2023-02-09T13:09:14.807Z,22.08
2023-02-09T13:11:51.580Z,22.17
2023-02-09T13:14:22.361Z,25.85
2023-02-09T13:17:29.220Z,22.45
2023-02-09T13:20:09.772Z,21.38
2023-02-09T13:22:55.459Z,22.67
2023-02-09T13:25:36.073Z,25.17
2023-02-09T13:28:22.754Z,20.90
2023-02-09T13:30:50.222Z,22.90
2023-02-09T13:33:22.697Z,21.08
2023-02-09T13:36:08.903Z,20.73
2023-02-09T13:38:40.631Z,24.23
2023-02-09T13:41:23.420Z,24.83
2023-02-09T13:43:50.279Z,20.00
2023-02-09T13:46:31.017Z,22.90
2023-02-09T13:49:11.486Z,23.90
2023-02-09T13:51:38.374Z,22.67
2023-02-09T13:54:05.309Z,23.55
2023-02-09T13:56:33.875Z,23.48
2023-02-09T13:59:04.209Z,20.48
2023-02-09T14:01:35.806Z,21.90
2023-02-09T14:04:18.990Z,20.52
2023-02-09T14:06:55.651Z,20.75
2023-02-09T14:09:31.331Z,18.15
2023-02-09T14:12:03.515Z,19.75
2023-02-09T14:15:00.351Z,23.92
2023-02-09T14:17:33.510Z,18.42
2023-02-09T14:20:01.270Z,19.17
2023-02-09T14:22:38.540Z,22.83
2023-02-09T14:25:26.879Z,20.73
2023-02-09T14:27:55.350Z,20.30
2023-02-09T14:30:29.729Z,17.20
2023-02-09T14:33:00.097Z,13.32
2023-02-09T14:35:30.898Z,14.88
2023-02-09T14:38:00.679Z,15.18
2023-02-09T14:40:27.750Z,13.55
2023-02-09T14:43:12.823Z,15.45
2023-02-09T14:45:44.618Z,15.55
2023-02-09T14:48:31.519Z,15.25
2023-02-09T14:51:01.929Z,16.02
2023-02-09T14:53:31.791Z,15.35
2023-02-09T14:55:59.446Z,14.05
2023-02-09T14:58:27.996Z,16.05
2023-02-09T15:00:57.965Z,13.23
2023-02-09T15:03:25.446Z,17.25
2023-02-09T15:05:57.278Z,16.30
2023-02-09T15:08:26.992Z,14.10
2023-02-09T15:10:57.426Z,17.95
2023-02-09T15:13:25.235Z,15.30
2023-02-09T15:15:52.118Z,15.65
2023-02-09T15:18:25.921Z,17.58
2023-02-09T15:20:53.269Z,16.17
2023-02-09T15:23:20.188Z,15.20
2023-02-09T15:25:47.883Z,15.57
2023-02-09T15:28:19.236Z,16.77
2023-02-09T15:30:47.368Z,17.52
2023-02-09T15:33:14.554Z,17.63
2023-02-09T15:35:42.013Z,16.35
2023-02-09T15:38:11.126Z,15.48
2023-02-09T15:41:01.970Z,14.90
2023-02-09T15:43:47.926Z,15.00
2023-02-09T15:46:34.212Z,16.08
2023-02-09T15:49:01.425Z,15.27
2023-02-09T15:51:33.894Z,21.52
2023-02-09T15:54:04.907Z,17.25
2023-02-09T15:56:31.843Z,17.95
2023-02-09T15:59:04.071Z,15.15
2023-02-09T16:01:33.936Z,17.33
2023-02-09T16:04:13.832Z,15.68
2023-02-09T16:06:51.492Z,16.25
2023-02-09T16:09:27.741Z,16.15
2023-02-09T16:11:54.777Z,15.68
2023-02-09T16:14:23.840Z,18.35
2023-02-09T16:16:50.962Z,19.13
2023-02-09T16:19:18.420Z,17.13
2023-02-09T16:21:50.333Z,16.90
2023-02-09T16:24:42.177Z,17.95
2023-02-09T16:27:21.699Z,17.20
2023-02-09T16:29:48.784Z,18.25
2023-02-09T16:32:22.114Z,19.92
2023-02-09T16:34:49.737Z,23.27
2023-02-09T16:37:21.565Z,19.60
2023-02-09T16:39:48.421Z,21.23
2023-02-09T16:42:16.412Z,22.35
2023-02-09T16:44:43.566Z,27.90
2023-02-09T16:47:22.497Z,27.10
2023-02-09T16:50:01.493Z,34.88
2023-02-09T16:52:30.364Z,36.83
2023-02-09T16:54:59.908Z,30.63
2023-02-09T16:57:28.891Z,28.45
2023-02-09T16:59:56.241Z,27.60
2023-02-09T17:02:34.080Z,33.92
2023-02-09T17:05:02.964Z,30.25
2023-02-09T17:07:48.753Z,28.80
2023-02-09T17:10:26.134Z,21.40
2023-02-09T17:12:53.969Z,27.63
2023-02-09T17:15:30.111Z,30.67
2023-02-09T17:18:05.379Z,28.85
2023-02-09T17:20:37.988Z,27.30
2023-02-09T17:23:05.389Z,31.85
2023-02-09T17:25:33.282Z,28.52
2023-02-09T17:28:00.384Z,26.80
2023-02-09T17:30:27.373Z,31.08
2023-02-09T17:33:00.286Z,24.65
2023-02-09T17:35:53.080Z,34.25
2023-02-09T17:38:26.288Z,33.22
2023-02-09T17:40:55.665Z,31.63
2023-02-09T17:43:23.554Z,33.50
2023-02-09T17:45:51.306Z,32.25
2023-02-09T17:48:22.392Z,33.55
2023-02-09T17:50:52.628Z,30.50
2023-02-09T17:53:25.596Z,32.38
2023-02-09T17:55:54.069Z,40.83
2023-02-09T17:58:20.961Z,38.95
2023-02-09T18:00:48.006Z,35.15
2023-02-09T18:03:17.464Z,36.13
2023-02-09T18:05:45.854Z,41.63
2023-02-09T18:08:12.991Z,37.75
2023-02-09T18:10:40.263Z,36.40
2023-02-09T18:13:07.378Z,33.88
2023-02-09T18:15:36.740Z,39.10
2023-02-09T18:18:04.855Z,37.53
2023-02-09T18:20:36.199Z,36.28
2023-02-09T18:23:04.425Z,38.10
2023-02-09T18:25:31.352Z,40.03
2023-02-09T18:27:58.550Z,48.17
2023-02-09T18:30:29.913Z,52.78
2023-02-09T18:32:57.794Z,50.75
2023-02-09T18:35:31.270Z,48.08
2023-02-09T18:38:00.441Z,48.42
2023-02-09T18:40:27.809Z,44.97
2023-02-09T18:42:54.806Z,46.60
2023-02-09T18:45:21.898Z,50.40
2023-02-09T18:47:48.959Z,47.22
2023-02-09T18:50:21.421Z,59.70
2023-02-09T18:52:51.055Z,66.05
2023-02-09T18:55:18.510Z,84.30
2023-02-09T18:57:45.964Z,57.15
2023-02-09T19:00:15.652Z,48.45
2023-02-09T19:02:44.167Z,58.35
2023-02-09T19:05:13.786Z,59.30
2023-02-09T19:07:40.833Z,55.22
2023-02-09T19:10:09.235Z,60.42
2023-02-09T19:12:37.344Z,49.58
2023-02-09T19:15:04.673Z,49.35
2023-02-09T19:17:31.611Z,43.45
2023-02-09T19:19:58.800Z,49.63
2023-02-09T19:22:26.149Z,48.85
2023-02-09T19:24:56.374Z,45.22
2023-02-09T19:27:26.079Z,51.33
2023-02-09T19:29:55.408Z,52.95
2023-02-09T19:32:23.329Z,58.67
2023-02-09T19:34:50.617Z,67.40
2023-02-09T19:37:20.736Z,81.50
2023-02-09T19:40:04.287Z,71.75
2023-02-09T19:42:31.943Z,61.63
2023-02-09T19:44:59.179Z,58.33
2023-02-09T19:47:27.321Z,67.72
2023-02-09T19:49:56.193Z,60.83
2023-02-09T19:52:23.620Z,66.72
2023-02-09T19:54:54.206Z,64.85
2023-02-09T19:57:22.354Z,60.00
2023-02-09T19:59:49.308Z,63.55
2023-02-09T20:02:17.306Z,58.08
2023-02-09T20:04:45.967Z,55.97
2023-02-09T20:07:13.970Z,53.58
2023-02-09T20:09:41.242Z,51.80
2023-02-09T20:12:08.469Z,60.28
2023-02-09T20:14:35.517Z,55.50
2023-02-09T20:17:02.387Z,59.63
2023-02-09T20:19:29.846Z,71.30
2023-02-09T20:21:59.728Z,71.47
2023-02-09T20:24:26.670Z,72.75
2023-02-09T20:26:53.662Z,64.15
2023-02-09T20:29:22.648Z,62.17
2023-02-09T20:31:49.851Z,57.22
2023-02-09T20:34:17.066Z,54.40
2023-02-09T20:36:45.875Z,60.22
2023-02-09T20:39:16.176Z,49.10
2023-02-09T20:42:11.259Z,56.95
2023-02-09T20:44:56.935Z,54.67
2023-02-09T20:47:25.976Z,63.40
2023-02-09T20:49:57.003Z,50.30
2023-02-09T20:52:23.946Z,46.78
2023-02-09T20:54:50.831Z,45.65
2023-02-09T20:57:18.319Z,44.20
2023-02-09T20:59:45.347Z,46.75
2023-02-09T21:02:15.033Z,44.85
2023-02-09T21:04:42.372Z,44.60
2023-02-09T21:07:09.328Z,42.95
2023-02-09T21:09:36.358Z,45.47
2023-02-09T21:12:03.233Z,49.65
2023-02-09T21:14:41.543Z,43.05
2023-02-09T21:17:09.367Z,40.30
2023-02-09T21:19:36.378Z,50.75
2023-02-09T21:22:03.442Z,56.33
2023-02-09T21:24:30.734Z,52.70
2023-02-09T21:26:57.630Z,56.53
2023-02-09T21:29:24.770Z,55.17
2023-02-09T21:31:52.119Z,44.63
2023-02-09T21:34:19.320Z,43.75
2023-02-09T21:36:46.427Z,43.42
2023-02-09T21:39:13.737Z,47.25
2023-02-09T21:41:59.184Z,45.55
2023-02-09T21:44:26.219Z,40.80
2023-02-09T21:46:54.081Z,42.08
2023-02-09T21:49:21.634Z,46.80
2023-02-09T21:51:48.603Z,51.30
2023-02-09T21:54:17.511Z,52.15
2023-02-09T21:56:45.157Z,50.90
2023-02-09T21:59:12.439Z,48.47
2023-02-09T22:01:40.738Z,47.92
2023-02-09T22:04:07.853Z,52.17
2023-02-09T22:06:35.899Z,47.97
2023-02-09T22:09:06.162Z,49.15
2023-02-09T22:11:33.574Z,45.90
2023-02-09T22:14:00.548Z,40.15
2023-02-09T22:16:27.973Z,48.90
2023-02-09T22:18:55.470Z,44.22
2023-02-09T22:21:22.514Z,43.33
2023-02-09T22:23:49.458Z,44.40
2023-02-09T22:26:16.526Z,45.78
2023-02-09T22:28:43.566Z,45.38
2023-02-09T22:31:14.319Z,43.90
2023-02-09T22:33:41.302Z,45.17
2023-02-09T22:36:17.224Z,53.30
2023-02-09T22:38:44.993Z,47.92
2023-02-09T22:41:23.320Z,50.67
2023-02-09T22:43:54.776Z,47.88
2023-02-09T22:46:24.062Z,49.45
2023-02-09T22:48:55.986Z,51.25
2023-02-09T22:51:24.355Z,53.42
2023-02-09T22:53:51.347Z,54.10
2023-02-09T22:56:18.453Z,60.10
2023-02-09T22:58:45.418Z,65.47
2023-02-09T23:01:12.873Z,58.15
2023-02-09T23:03:40.668Z,63.83
2023-02-09T23:06:10.644Z,61.50
2023-02-09T23:08:37.501Z,47.88
2023-02-09T23:11:16.647Z,55.42
2023-02-09T23:13:44.526Z,47.65
2023-02-09T23:16:23.097Z,47.22
2023-02-09T23:19:02.359Z,44.50
2023-02-09T23:21:35.237Z,37.05
2023-02-09T23:24:05.971Z,43.00
2023-02-09T23:26:33.206Z,46.42
2023-02-09T23:29:03.862Z,48.88
2023-02-09T23:31:31.299Z,43.42
2023-02-09T23:33:58.882Z,39.47
2023-02-09T23:36:28.621Z,42.55
2023-02-09T23:39:04.580Z,42.15
2023-02-09T23:41:32.013Z,42.25
2023-02-09T23:43:59.809Z,40.72
2023-02-09T23:46:28.843Z,39.50
2023-02-09T23:48:56.480Z,37.47
2023-02-09T23:51:30.100Z,37.65
2023-02-09T23:53:58.876Z,34.72
2023-02-09T23:56:27.180Z,44.00
2023-02-09T23:58:56.846Z,45.00
